Wilsons Promontory Light, Australia
Current Conditions -  °F | °C
As of 12:00 AM on Monday 24 Nov 2014 (Local Time) from YMEN Reporting Station
Clear Clear  
Wind Chill: 61°   Ceiling: Unl
Heat Index: 61°   Visibility: 6mi
Dew Point: 52°   Wind: 7mph
Humidity: 72%   Direction: 220°SW
Pressure: 29.88"   Gusts: NA
Location:  39.12°S, 146.42°E
Report Text: YMEN 231300Z AUTO 22006KT 9999 // NCD 16/11 Q1012
Loading
Personal Weather Stations






























Interactive Weather Map New forecast layout! Learn more

10-Day Weather Forecast

Advertisements
Track Severe Weather on mobile